createdAt,value
2022-12-11T00:00:37.000Z,99.79
2022-12-11T00:01:37.000Z,99.85
2022-12-11T00:02:37.000Z,99.79
2022-12-11T00:03:37.000Z,99.74
2022-12-11T00:04:37.000Z,99.74
2022-12-11T00:05:37.000Z,99.90
2022-12-11T00:06:37.000Z,99.74
2022-12-11T00:07:37.000Z,99.85
2022-12-11T00:08:37.000Z,99.85
2022-12-11T00:09:37.000Z,99.85
2022-12-11T00:10:37.000Z,99.74
2022-12-11T00:11:37.000Z,99.79
2022-12-11T00:12:37.000Z,99.74
2022-12-11T00:13:37.000Z,99.74
2022-12-11T00:14:37.000Z,99.64
2022-12-11T00:15:37.000Z,99.54
2022-12-11T00:16:37.000Z,99.43
2022-12-11T00:17:37.000Z,99.48
2022-12-11T00:18:37.000Z,99.58
2022-12-11T00:19:37.000Z,99.58
2022-12-11T00:20:37.000Z,99.58
2022-12-11T00:21:37.000Z,99.54
2022-12-11T00:22:37.000Z,99.43
2022-12-11T00:23:37.000Z,99.48
2022-12-11T00:24:37.000Z,99.37
2022-12-11T00:25:37.000Z,99.27
2022-12-11T00:26:37.000Z,99.27
2022-12-11T00:27:37.000Z,99.37
2022-12-11T00:28:37.000Z,99.27
2022-12-11T00:29:37.000Z,99.16
2022-12-11T00:30:37.000Z,99.16
2022-12-11T00:31:37.000Z,99.27
2022-12-11T00:32:37.000Z,99.27
2022-12-11T00:33:37.000Z,99.27
2022-12-11T00:34:37.000Z,99.27
2022-12-11T00:35:37.000Z,99.27
2022-12-11T00:36:37.000Z,99.37
2022-12-11T00:37:37.000Z,99.37
2022-12-11T00:38:37.000Z,99.48
2022-12-11T00:39:37.000Z,99.27
2022-12-11T00:40:37.000Z,99.27
2022-12-11T00:41:37.000Z,99.27
2022-12-11T00:42:37.000Z,99.27
2022-12-11T00:43:37.000Z,99.16
2022-12-11T00:44:37.000Z,99.16
2022-12-11T00:45:37.000Z,99.16
2022-12-11T00:46:37.000Z,99.05
2022-12-11T00:47:37.000Z,99.05
2022-12-11T00:48:37.000Z,99.16
2022-12-11T00:49:37.000Z,99.16
2022-12-11T00:50:37.000Z,99.27
2022-12-11T00:51:37.000Z,99.27
2022-12-11T00:52:37.000Z,99.27
2022-12-11T00:53:37.000Z,99.27
2022-12-11T00:54:37.000Z,99.27
2022-12-11T00:55:37.000Z,99.37
2022-12-11T00:56:37.000Z,99.48
2022-12-11T00:57:37.000Z,99.48
2022-12-11T00:58:37.000Z,99.48
2022-12-11T00:59:37.000Z,99.48
2022-12-11T01:00:37.000Z,99.37
2022-12-11T01:01:37.000Z,99.37
2022-12-11T01:02:36.000Z,99.27
2022-12-11T01:03:36.000Z,99.16
2022-12-11T01:04:36.000Z,99.16
2022-12-11T01:05:36.000Z,99.16
2022-12-11T01:06:36.000Z,99.05
2022-12-11T01:07:36.000Z,98.95
2022-12-11T01:08:36.000Z,98.95
2022-12-11T01:09:36.000Z,99.05
2022-12-11T01:10:36.000Z,99.05
2022-12-11T01:11:36.000Z,99.16
2022-12-11T01:12:36.000Z,99.27
2022-12-11T01:13:36.000Z,99.27
2022-12-11T01:14:36.000Z,99.37
2022-12-11T01:15:36.000Z,99.37
2022-12-11T01:16:36.000Z,99.27
2022-12-11T01:17:36.000Z,99.27
2022-12-11T01:18:36.000Z,99.27
2022-12-11T01:19:36.000Z,99.37
2022-12-11T01:20:36.000Z,99.48
2022-12-11T01:21:36.000Z,99.48
2022-12-11T01:22:36.000Z,99.58
2022-12-11T01:23:36.000Z,99.58
2022-12-11T01:24:36.000Z,99.69
2022-12-11T01:25:36.000Z,99.69
2022-12-11T01:26:36.000Z,99.48
2022-12-11T01:27:36.000Z,99.37
2022-12-11T01:28:36.000Z,99.16
2022-12-11T01:29:36.000Z,99.16
2022-12-11T01:30:36.000Z,99.16
2022-12-11T01:31:36.000Z,99.16
2022-12-11T01:32:36.000Z,99.27
2022-12-11T01:33:36.000Z,99.27
2022-12-11T01:34:36.000Z,99.27
2022-12-11T01:35:36.000Z,99.37
2022-12-11T01:36:36.000Z,99.37
2022-12-11T01:37:36.000Z,99.27
2022-12-11T01:38:36.000Z,99.27
2022-12-11T01:39:36.000Z,99.27
2022-12-11T01:40:36.000Z,99.16
2022-12-11T01:41:36.000Z,99.05
2022-12-11T01:42:36.000Z,98.95
2022-12-11T01:43:36.000Z,98.95
2022-12-11T01:44:36.000Z,98.95
2022-12-11T01:45:36.000Z,99.05
2022-12-11T01:46:36.000Z,98.85
2022-12-11T01:47:36.000Z,98.85
2022-12-11T01:48:36.000Z,98.85
2022-12-11T01:49:36.000Z,98.95
2022-12-11T01:50:36.000Z,98.95
2022-12-11T01:51:36.000Z,98.95
2022-12-11T01:52:36.000Z,99.05
2022-12-11T01:53:36.000Z,98.95
2022-12-11T01:54:36.000Z,98.85
2022-12-11T01:55:36.000Z,98.85
2022-12-11T01:56:36.000Z,98.85
2022-12-11T01:57:36.000Z,98.74
2022-12-11T01:58:36.000Z,98.89
2022-12-11T01:59:36.000Z,98.95
2022-12-11T02:00:36.000Z,99.00
2022-12-11T02:01:36.000Z,99.00
2022-12-11T02:02:36.000Z,99.00
2022-12-11T02:03:36.000Z,99.00
2022-12-11T02:04:36.000Z,98.95
2022-12-11T02:05:36.000Z,99.00
2022-12-11T02:06:36.000Z,99.00
2022-12-11T02:07:36.000Z,99.00
2022-12-11T02:08:36.000Z,99.10
2022-12-11T02:09:36.000Z,99.00
2022-12-11T02:10:36.000Z,99.00
2022-12-11T02:11:36.000Z,99.00
2022-12-11T02:12:36.000Z,99.10
2022-12-11T02:13:36.000Z,99.10
2022-12-11T02:14:36.000Z,99.10
2022-12-11T02:15:36.000Z,99.21
2022-12-11T02:16:36.000Z,99.21
2022-12-11T02:17:36.000Z,99.31
2022-12-11T02:18:36.000Z,99.37
2022-12-11T02:19:36.000Z,99.37
2022-12-11T02:20:35.000Z,99.31
2022-12-11T02:21:35.000Z,99.31
2022-12-11T02:22:35.000Z,99.21
2022-12-11T02:23:35.000Z,99.21
2022-12-11T02:24:35.000Z,99.21
2022-12-11T02:25:35.000Z,99.21
2022-12-11T02:26:35.000Z,99.21
2022-12-11T02:27:35.000Z,99.21
2022-12-11T02:28:35.000Z,99.31
2022-12-11T02:29:35.000Z,99.31
2022-12-11T02:30:35.000Z,99.31
2022-12-11T02:31:35.000Z,99.41
2022-12-11T02:32:35.000Z,99.41
2022-12-11T02:33:35.000Z,99.21
2022-12-11T02:34:35.000Z,99.00
2022-12-11T02:35:35.000Z,99.10
2022-12-11T02:36:35.000Z,99.10
2022-12-11T02:37:35.000Z,99.10
2022-12-11T02:38:35.000Z,99.21
2022-12-11T02:39:35.000Z,99.21
2022-12-11T02:40:35.000Z,99.10
2022-12-11T02:41:35.000Z,99.21
2022-12-11T02:42:35.000Z,99.21
2022-12-11T02:43:35.000Z,98.89
2022-12-11T02:44:35.000Z,98.89
2022-12-11T02:45:35.000Z,98.68
2022-12-11T02:46:35.000Z,98.47
2022-12-11T02:47:35.000Z,98.58
2022-12-11T02:48:35.000Z,98.58
2022-12-11T02:49:35.000Z,98.58
2022-12-11T02:50:35.000Z,98.58
2022-12-11T02:51:35.000Z,98.47
2022-12-11T02:52:35.000Z,98.26
2022-12-11T02:53:35.000Z,98.16
2022-12-11T02:54:35.000Z,98.16
2022-12-11T02:55:35.000Z,98.16
2022-12-11T02:56:35.000Z,98.05
2022-12-11T02:57:35.000Z,98.05
2022-12-11T02:58:35.000Z,98.05
2022-12-11T02:59:35.000Z,98.05
2022-12-11T03:00:35.000Z,97.63
2022-12-11T03:01:35.000Z,97.53
2022-12-11T03:02:35.000Z,97.11
2022-12-11T03:03:35.000Z,96.69
2022-12-11T03:04:35.000Z,96.37
2022-12-11T03:05:35.000Z,95.84
2022-12-11T03:06:35.000Z,95.84
2022-12-11T03:07:35.000Z,95.95
2022-12-11T03:08:35.000Z,95.95
2022-12-11T03:09:35.000Z,95.64
2022-12-11T03:10:35.000Z,95.32
2022-12-11T03:11:35.000Z,95.21
2022-12-11T03:12:35.000Z,94.79
2022-12-11T03:13:35.000Z,94.79
2022-12-11T03:14:35.000Z,94.79
2022-12-11T03:15:35.000Z,94.48
2022-12-11T03:16:35.000Z,94.27
2022-12-11T03:17:35.000Z,93.32
2022-12-11T03:18:35.000Z,93.63
2022-12-11T03:19:35.000Z,93.95
2022-12-11T03:20:35.000Z,93.95
2022-12-11T03:21:35.000Z,93.53
2022-12-11T03:22:35.000Z,93.32
2022-12-11T03:23:35.000Z,92.80
2022-12-11T03:24:35.000Z,92.80
2022-12-11T03:25:35.000Z,92.80
2022-12-11T03:26:35.000Z,93.01
2022-12-11T03:27:35.000Z,93.22
2022-12-11T03:28:35.000Z,93.32
2022-12-11T03:29:35.000Z,93.43
2022-12-11T03:30:35.000Z,93.32
2022-12-11T03:31:35.000Z,93.43
2022-12-11T03:32:35.000Z,93.53
2022-12-11T03:33:35.000Z,93.63
2022-12-11T03:34:35.000Z,93.85
2022-12-11T03:35:35.000Z,93.95
2022-12-11T03:36:35.000Z,93.53
2022-12-11T03:37:34.000Z,92.80
2022-12-11T03:38:34.000Z,92.69
2022-12-11T03:39:34.000Z,92.90
2022-12-11T03:40:34.000Z,92.58
2022-12-11T03:41:34.000Z,92.48
2022-12-11T03:42:34.000Z,92.27
2022-12-11T03:43:34.000Z,91.85
2022-12-11T03:44:34.000Z,91.11
2022-12-11T03:45:34.000Z,91.43
2022-12-11T03:46:34.000Z,91.96
2022-12-11T03:47:34.000Z,92.38
2022-12-11T03:48:34.000Z,92.10
2022-12-11T03:49:34.000Z,92.10
2022-12-11T03:50:34.000Z,92.16
2022-12-11T03:51:34.000Z,92.31
2022-12-11T03:52:34.000Z,92.38
2022-12-11T03:53:34.000Z,92.38
2022-12-11T03:54:34.000Z,92.10
2022-12-11T03:55:34.000Z,92.16
2022-12-11T03:56:34.000Z,92.42
2022-12-11T03:57:34.000Z,92.21
2022-12-11T03:58:34.000Z,91.85
2022-12-11T03:59:34.000Z,91.26
2022-12-11T04:00:34.000Z,91.58
2022-12-11T04:01:34.000Z,91.05
2022-12-11T04:02:34.000Z,90.53
2022-12-11T04:03:34.000Z,90.53
2022-12-11T04:04:34.000Z,90.11
2022-12-11T04:05:34.000Z,90.63
2022-12-11T04:06:34.000Z,90.63
2022-12-11T04:07:34.000Z,90.00
2022-12-11T04:08:34.000Z,90.21
2022-12-11T04:09:34.000Z,90.63
2022-12-11T04:10:34.000Z,90.84
2022-12-11T04:11:34.000Z,90.84
2022-12-11T04:12:34.000Z,91.16
2022-12-11T04:13:34.000Z,91.36
2022-12-11T04:14:34.000Z,91.58
2022-12-11T04:15:34.000Z,91.89
2022-12-11T04:16:34.000Z,91.68
2022-12-11T04:17:34.000Z,91.78
2022-12-11T04:18:34.000Z,91.58
2022-12-11T04:19:34.000Z,91.58
2022-12-11T04:20:34.000Z,91.68
2022-12-11T04:21:34.000Z,91.78
2022-12-11T04:22:34.000Z,91.68
2022-12-11T04:23:34.000Z,91.89
2022-12-11T04:24:34.000Z,92.10
2022-12-11T04:25:34.000Z,92.31
2022-12-11T04:26:34.000Z,92.42
2022-12-11T04:27:34.000Z,92.21
2022-12-11T04:28:34.000Z,92.00
2022-12-11T04:29:34.000Z,91.78
2022-12-11T04:30:34.000Z,91.26
2022-12-11T04:31:34.000Z,91.58
2022-12-11T04:32:34.000Z,91.47
2022-12-11T04:33:34.000Z,91.36
2022-12-11T04:34:34.000Z,91.16
2022-12-11T04:35:34.000Z,91.36
2022-12-11T04:36:34.000Z,91.47
2022-12-11T04:37:34.000Z,91.58
2022-12-11T04:38:34.000Z,91.58
2022-12-11T04:39:34.000Z,91.68
2022-12-11T04:40:34.000Z,91.89
2022-12-11T04:41:34.000Z,92.10
2022-12-11T04:42:34.000Z,92.10
2022-12-11T04:43:34.000Z,92.10
2022-12-11T04:44:34.000Z,92.10
2022-12-11T04:45:34.000Z,92.00
2022-12-11T04:46:34.000Z,91.58
2022-12-11T04:47:34.000Z,91.47
2022-12-11T04:48:34.000Z,91.62
2022-12-11T04:49:34.000Z,91.47
2022-12-11T04:50:34.000Z,91.36
2022-12-11T04:51:34.000Z,91.26
2022-12-11T04:52:34.000Z,91.30
2022-12-11T04:53:34.000Z,91.05
2022-12-11T04:54:34.000Z,91.20
2022-12-11T04:55:33.000Z,91.30
2022-12-11T04:56:33.000Z,91.47
2022-12-11T04:57:33.000Z,91.41
2022-12-11T04:58:33.000Z,91.41
2022-12-11T04:59:33.000Z,91.51
2022-12-11T05:00:33.000Z,91.30
2022-12-11T05:01:33.000Z,90.99
2022-12-11T05:02:33.000Z,91.09
2022-12-11T05:03:33.000Z,91.20
2022-12-11T05:04:33.000Z,91.30
2022-12-11T05:05:33.000Z,91.20
2022-12-11T05:06:33.000Z,90.88
2022-12-11T05:07:33.000Z,90.04
2022-12-11T05:08:33.000Z,90.04
2022-12-11T05:09:33.000Z,90.36
2022-12-11T05:10:33.000Z,90.04
2022-12-11T05:11:33.000Z,90.14
2022-12-11T05:12:33.000Z,90.14
2022-12-11T05:13:33.000Z,90.14
2022-12-11T05:14:33.000Z,89.83
2022-12-11T05:15:33.000Z,89.41
2022-12-11T05:16:33.000Z,89.09
2022-12-11T05:17:33.000Z,89.72
2022-12-11T05:18:33.000Z,90.04
2022-12-11T05:19:33.000Z,89.62
2022-12-11T05:20:33.000Z,89.62
2022-12-11T05:21:33.000Z,89.83
2022-12-11T05:22:33.000Z,90.14
2022-12-11T05:23:33.000Z,90.46
2022-12-11T05:24:33.000Z,90.14
2022-12-11T05:25:33.000Z,90.04
2022-12-11T05:26:33.000Z,90.14
2022-12-11T05:27:33.000Z,90.14
2022-12-11T05:28:33.000Z,90.04
2022-12-11T05:29:33.000Z,90.04
2022-12-11T05:30:33.000Z,90.14
2022-12-11T05:31:33.000Z,90.46
2022-12-11T05:32:33.000Z,90.36
2022-12-11T05:33:33.000Z,90.36
2022-12-11T05:34:33.000Z,90.36
2022-12-11T05:35:33.000Z,90.56
2022-12-11T05:36:33.000Z,90.67
2022-12-11T05:37:33.000Z,90.78
2022-12-11T05:38:33.000Z,91.09
2022-12-11T05:39:33.000Z,91.20
2022-12-11T05:40:33.000Z,91.20
2022-12-11T05:41:33.000Z,90.88
2022-12-11T05:42:33.000Z,90.36
2022-12-11T05:43:33.000Z,90.25
2022-12-11T05:44:33.000Z,90.46
2022-12-11T05:45:33.000Z,90.88
2022-12-11T05:46:33.000Z,91.09
2022-12-11T05:47:33.000Z,91.20
2022-12-11T05:48:33.000Z,91.41
2022-12-11T05:49:33.000Z,91.51
2022-12-11T05:50:33.000Z,91.62
2022-12-11T05:51:33.000Z,91.62
2022-12-11T05:52:33.000Z,91.72
2022-12-11T05:53:33.000Z,91.93
2022-12-11T05:54:33.000Z,92.14
2022-12-11T05:55:33.000Z,92.46
2022-12-11T05:56:33.000Z,92.46
2022-12-11T05:57:33.000Z,92.46
2022-12-11T05:58:33.000Z,92.46
2022-12-11T05:59:33.000Z,92.57
2022-12-11T06:00:33.000Z,92.57
2022-12-11T06:01:33.000Z,92.57
2022-12-11T06:02:33.000Z,92.77
2022-12-11T06:03:33.000Z,92.99
2022-12-11T06:04:33.000Z,93.19
2022-12-11T06:05:33.000Z,93.19
2022-12-11T06:06:33.000Z,93.09
2022-12-11T06:07:33.000Z,93.09
2022-12-11T06:08:33.000Z,93.30
2022-12-11T06:09:33.000Z,93.30
2022-12-11T06:10:33.000Z,93.09
2022-12-11T06:11:33.000Z,92.77
2022-12-11T06:12:33.000Z,92.88
2022-12-11T06:13:33.000Z,92.67
2022-12-11T06:14:32.000Z,92.57
2022-12-11T06:15:32.000Z,92.46
2022-12-11T06:16:32.000Z,92.35
2022-12-11T06:17:32.000Z,92.35
2022-12-11T06:18:32.000Z,92.46
2022-12-11T06:19:32.000Z,92.67
2022-12-11T06:20:32.000Z,92.67
2022-12-11T06:21:32.000Z,92.67
2022-12-11T06:22:32.000Z,92.57
2022-12-11T06:23:32.000Z,92.35
2022-12-11T06:24:32.000Z,91.93
2022-12-11T06:25:32.000Z,91.93
2022-12-11T06:26:32.000Z,92.04
2022-12-11T06:27:32.000Z,92.35
2022-12-11T06:28:32.000Z,92.46
2022-12-11T06:29:32.000Z,92.46
2022-12-11T06:30:32.000Z,92.46
2022-12-11T06:31:32.000Z,92.57
2022-12-11T06:32:32.000Z,92.57
2022-12-11T06:33:32.000Z,92.67
2022-12-11T06:34:32.000Z,92.67
2022-12-11T06:35:32.000Z,92.67
2022-12-11T06:36:32.000Z,92.57
2022-12-11T06:37:32.000Z,92.77
2022-12-11T06:38:32.000Z,92.67
2022-12-11T06:39:32.000Z,92.67
2022-12-11T06:40:32.000Z,92.61
2022-12-11T06:41:32.000Z,92.67
2022-12-11T06:42:32.000Z,92.29
2022-12-11T06:43:32.000Z,92.29
2022-12-11T06:44:32.000Z,92.40
2022-12-11T06:45:32.000Z,92.67
2022-12-11T06:46:32.000Z,92.92
2022-12-11T06:47:32.000Z,93.13
2022-12-11T06:48:32.000Z,93.13
2022-12-11T06:49:32.000Z,93.13
2022-12-11T06:50:32.000Z,93.24
2022-12-11T06:51:32.000Z,93.34
2022-12-11T06:52:32.000Z,93.45
2022-12-11T06:53:32.000Z,93.66
2022-12-11T06:54:32.000Z,93.66
2022-12-11T06:55:32.000Z,93.66
2022-12-11T06:56:32.000Z,93.76
2022-12-11T06:57:32.000Z,93.76
2022-12-11T06:58:32.000Z,93.66
2022-12-11T06:59:32.000Z,93.66
2022-12-11T07:00:32.000Z,93.76
2022-12-11T07:01:32.000Z,93.87
2022-12-11T07:02:32.000Z,93.87
2022-12-11T07:03:32.000Z,93.98
2022-12-11T07:04:32.000Z,94.08
2022-12-11T07:05:32.000Z,94.08
2022-12-11T07:06:32.000Z,94.08
2022-12-11T07:07:32.000Z,94.08
2022-12-11T07:08:32.000Z,94.08
2022-12-11T07:09:32.000Z,93.87
2022-12-11T07:10:32.000Z,93.87
2022-12-11T07:11:32.000Z,93.98
2022-12-11T07:12:32.000Z,93.87
2022-12-11T07:13:32.000Z,94.08
2022-12-11T07:14:32.000Z,94.18
2022-12-11T07:15:32.000Z,94.18
2022-12-11T07:16:32.000Z,94.29
2022-12-11T07:17:32.000Z,94.40
2022-12-11T07:18:32.000Z,94.35
2022-12-11T07:19:32.000Z,94.29
2022-12-11T07:20:32.000Z,94.40
2022-12-11T07:21:32.000Z,94.35
2022-12-11T07:22:32.000Z,94.35
2022-12-11T07:23:32.000Z,94.35
2022-12-11T07:24:32.000Z,94.46
2022-12-11T07:25:32.000Z,94.56
2022-12-11T07:26:32.000Z,94.67
2022-12-11T07:27:32.000Z,94.78
2022-12-11T07:28:32.000Z,94.78
2022-12-11T07:29:32.000Z,94.78
2022-12-11T07:30:32.000Z,94.67
2022-12-11T07:31:32.000Z,94.88
2022-12-11T07:32:32.000Z,94.67
2022-12-11T07:33:31.000Z,94.46
2022-12-11T07:34:31.000Z,94.35
2022-12-11T07:35:31.000Z,94.35
2022-12-11T07:36:31.000Z,94.35
2022-12-11T07:37:31.000Z,94.46
2022-12-11T07:38:31.000Z,94.56
2022-12-11T07:39:31.000Z,94.56
2022-12-11T07:40:31.000Z,94.56
2022-12-11T07:41:31.000Z,94.46
2022-12-11T07:42:31.000Z,94.25
2022-12-11T07:43:31.000Z,94.25
2022-12-11T07:44:31.000Z,94.25
2022-12-11T07:45:31.000Z,94.25
2022-12-11T07:46:31.000Z,94.14
2022-12-11T07:47:31.000Z,93.83
2022-12-11T07:48:31.000Z,93.93
2022-12-11T07:49:31.000Z,93.83
2022-12-11T07:50:31.000Z,93.83
2022-12-11T07:51:31.000Z,93.72
2022-12-11T07:52:31.000Z,93.51
2022-12-11T07:53:31.000Z,93.51
2022-12-11T07:54:31.000Z,93.51
2022-12-11T07:55:31.000Z,93.51
2022-12-11T07:56:31.000Z,93.47
2022-12-11T07:57:31.000Z,93.19
2022-12-11T07:58:31.000Z,93.26
2022-12-11T07:59:31.000Z,93.37
2022-12-11T08:00:31.000Z,93.15
2022-12-11T08:01:31.000Z,92.94
2022-12-11T08:02:31.000Z,93.05
2022-12-11T08:03:31.000Z,93.05
2022-12-11T08:04:31.000Z,93.15
2022-12-11T08:05:31.000Z,93.05
2022-12-11T08:06:31.000Z,93.05
2022-12-11T08:07:31.000Z,92.84
2022-12-11T08:08:31.000Z,92.52
2022-12-11T08:09:31.000Z,92.10
2022-12-11T08:10:31.000Z,92.10
2022-12-11T08:11:31.000Z,91.89
2022-12-11T08:12:31.000Z,91.78
2022-12-11T08:13:31.000Z,91.78
2022-12-11T08:14:31.000Z,92.00
2022-12-11T08:15:31.000Z,92.10
2022-12-11T08:16:31.000Z,91.96
2022-12-11T08:17:31.000Z,92.16
2022-12-11T08:18:31.000Z,91.64
2022-12-11T08:19:31.000Z,91.85
2022-12-11T08:20:31.000Z,91.96
2022-12-11T08:21:31.000Z,92.06
2022-12-11T08:22:31.000Z,92.06
2022-12-11T08:23:31.000Z,91.96
2022-12-11T08:24:31.000Z,91.96
2022-12-11T08:25:31.000Z,91.96
2022-12-11T08:26:31.000Z,92.16
2022-12-11T08:27:31.000Z,92.06
2022-12-11T08:28:31.000Z,91.85
2022-12-11T08:29:31.000Z,91.74
2022-12-11T08:30:31.000Z,90.69
2022-12-11T08:31:31.000Z,90.48
2022-12-11T08:32:31.000Z,90.48
2022-12-11T08:33:31.000Z,90.38
2022-12-11T08:34:31.000Z,89.75
2022-12-11T08:35:31.000Z,90.02
2022-12-11T08:36:31.000Z,90.23
2022-12-11T08:37:31.000Z,90.38
2022-12-11T08:38:31.000Z,90.34
2022-12-11T08:39:31.000Z,90.44
2022-12-11T08:40:31.000Z,90.44
2022-12-11T08:41:31.000Z,90.55
2022-12-11T08:42:31.000Z,90.66
2022-12-11T08:43:31.000Z,90.76
2022-12-11T08:44:31.000Z,90.76
2022-12-11T08:45:31.000Z,90.72
2022-12-11T08:46:31.000Z,90.61
2022-12-11T08:47:31.000Z,90.19
2022-12-11T08:48:31.000Z,90.40
2022-12-11T08:49:31.000Z,89.77
2022-12-11T08:50:31.000Z,89.77
2022-12-11T08:51:30.000Z,90.09
2022-12-11T08:52:30.000Z,90.19
2022-12-11T08:53:30.000Z,89.73
2022-12-11T08:54:30.000Z,89.21
2022-12-11T08:55:30.000Z,88.89
2022-12-11T08:56:30.000Z,89.21
2022-12-11T08:57:30.000Z,89.62
2022-12-11T08:58:30.000Z,89.73
2022-12-11T08:59:30.000Z,89.94
2022-12-11T09:00:30.000Z,89.62
2022-12-11T09:01:30.000Z,89.42
2022-12-11T09:02:30.000Z,89.52
2022-12-11T09:03:30.000Z,89.06
2022-12-11T09:04:30.000Z,89.17
2022-12-11T09:05:30.000Z,88.22
2022-12-11T09:06:30.000Z,88.85
2022-12-11T09:07:30.000Z,88.64
2022-12-11T09:08:30.000Z,88.54
2022-12-11T09:09:30.000Z,88.85
2022-12-11T09:10:30.000Z,88.92
2022-12-11T09:11:30.000Z,88.81
2022-12-11T09:12:30.000Z,88.81
2022-12-11T09:13:30.000Z,88.92
2022-12-11T09:14:30.000Z,89.23
2022-12-11T09:15:30.000Z,89.02
2022-12-11T09:16:30.000Z,88.81
2022-12-11T09:17:30.000Z,88.18
2022-12-11T09:18:30.000Z,87.83
2022-12-11T09:19:30.000Z,87.13
2022-12-11T09:20:30.000Z,86.29
2022-12-11T09:21:30.000Z,86.51
2022-12-11T09:22:30.000Z,86.08
2022-12-11T09:23:30.000Z,86.08
2022-12-11T09:24:30.000Z,85.35
2022-12-11T09:25:30.000Z,85.14
2022-12-11T09:26:30.000Z,86.19
2022-12-11T09:27:30.000Z,86.71
2022-12-11T09:28:30.000Z,86.40
2022-12-11T09:29:30.000Z,86.40
2022-12-11T09:30:30.000Z,86.82
2022-12-11T09:31:30.000Z,87.45
2022-12-11T09:32:30.000Z,87.55
2022-12-11T09:33:30.000Z,87.87
2022-12-11T09:34:30.000Z,87.51
2022-12-11T09:35:30.000Z,87.41
2022-12-11T09:36:30.000Z,87.30
2022-12-11T09:37:30.000Z,86.88
2022-12-11T09:38:30.000Z,86.25
2022-12-11T09:39:30.000Z,86.88
2022-12-11T09:40:30.000Z,87.30
2022-12-11T09:41:30.000Z,87.20
2022-12-11T09:42:30.000Z,87.16
2022-12-11T09:43:30.000Z,86.57
2022-12-11T09:44:30.000Z,86.46
2022-12-11T09:45:30.000Z,86.46
2022-12-11T09:46:30.000Z,86.99
2022-12-11T09:47:30.000Z,87.09
2022-12-11T09:48:30.000Z,86.88
2022-12-11T09:49:30.000Z,87.62
2022-12-11T09:50:30.000Z,87.62
2022-12-11T09:51:30.000Z,87.89
2022-12-11T09:52:30.000Z,87.16
2022-12-11T09:53:30.000Z,86.85
2022-12-11T09:54:30.000Z,86.95
2022-12-11T09:55:30.000Z,86.53
2022-12-11T09:56:30.000Z,85.59
2022-12-11T09:57:30.000Z,85.80
2022-12-11T09:58:30.000Z,86.32
2022-12-11T09:59:30.000Z,86.11
2022-12-11T10:00:30.000Z,86.43
2022-12-11T10:01:30.000Z,86.91
2022-12-11T10:02:30.000Z,87.43
2022-12-11T10:03:30.000Z,87.33
2022-12-11T10:04:30.000Z,86.80
2022-12-11T10:05:30.000Z,85.75
2022-12-11T10:06:30.000Z,85.69
2022-12-11T10:07:30.000Z,85.59
2022-12-11T10:08:30.000Z,85.59
2022-12-11T10:09:29.000Z,85.80
2022-12-11T10:10:29.000Z,86.00
2022-12-11T10:11:29.000Z,85.69
2022-12-11T10:12:29.000Z,85.27
2022-12-11T10:13:29.000Z,85.17
2022-12-11T10:14:29.000Z,85.59
2022-12-11T10:15:29.000Z,86.28
2022-12-11T10:16:29.000Z,85.59
2022-12-11T10:17:29.000Z,85.80
2022-12-11T10:18:29.000Z,86.43
2022-12-11T10:19:29.000Z,86.63
2022-12-11T10:20:29.000Z,86.22
2022-12-11T10:21:29.000Z,86.11
2022-12-11T10:22:29.000Z,86.74
2022-12-11T10:23:29.000Z,86.74
2022-12-11T10:24:29.000Z,87.16
2022-12-11T10:25:29.000Z,87.47
2022-12-11T10:26:29.000Z,87.68
2022-12-11T10:27:29.000Z,88.10
2022-12-11T10:28:29.000Z,88.42
2022-12-11T10:29:29.000Z,88.42
2022-12-11T10:30:29.000Z,88.42
2022-12-11T10:31:29.000Z,88.98
2022-12-11T10:32:29.000Z,89.19
2022-12-11T10:33:29.000Z,89.40
2022-12-11T10:34:29.000Z,89.36
2022-12-11T10:35:29.000Z,89.19
2022-12-11T10:36:29.000Z,89.29
2022-12-11T10:37:29.000Z,89.40
2022-12-11T10:38:29.000Z,89.29
2022-12-11T10:39:29.000Z,88.77
2022-12-11T10:40:29.000Z,88.67
2022-12-11T10:41:29.000Z,89.19
2022-12-11T10:42:29.000Z,89.61
2022-12-11T10:43:29.000Z,89.19
2022-12-11T10:44:29.000Z,88.56
2022-12-11T10:45:29.000Z,88.46
2022-12-11T10:46:29.000Z,87.20
2022-12-11T10:47:29.000Z,87.41
2022-12-11T10:48:29.000Z,88.56
2022-12-11T10:49:29.000Z,88.67
2022-12-11T10:50:29.000Z,88.46
2022-12-11T10:51:29.000Z,88.56
2022-12-11T10:52:29.000Z,88.56
2022-12-11T10:53:29.000Z,88.87
2022-12-11T10:54:29.000Z,89.19
2022-12-11T10:55:29.000Z,89.57
2022-12-11T10:56:29.000Z,89.67
2022-12-11T10:57:29.000Z,89.57
2022-12-11T10:58:29.000Z,88.62
2022-12-11T10:59:29.000Z,87.89
2022-12-11T11:00:29.000Z,87.37
2022-12-11T11:01:29.000Z,87.37
2022-12-11T11:02:29.000Z,87.68
2022-12-11T11:03:29.000Z,87.37
2022-12-11T11:04:29.000Z,87.58
2022-12-11T11:05:29.000Z,87.68
2022-12-11T11:06:29.000Z,86.85
2022-12-11T11:07:29.000Z,86.53
2022-12-11T11:08:29.000Z,87.05
2022-12-11T11:09:29.000Z,87.26
2022-12-11T11:10:29.000Z,86.95
2022-12-11T11:11:29.000Z,87.16
2022-12-11T11:12:29.000Z,87.37
2022-12-11T11:13:29.000Z,87.47
2022-12-11T11:14:29.000Z,87.05
2022-12-11T11:15:29.000Z,86.95
2022-12-11T11:16:29.000Z,87.16
2022-12-11T11:17:29.000Z,86.74
2022-12-11T11:18:29.000Z,86.78
2022-12-11T11:19:29.000Z,87.41
2022-12-11T11:20:29.000Z,87.09
2022-12-11T11:21:29.000Z,86.46
2022-12-11T11:21:29.000Z,86.46
2022-12-11T11:22:29.000Z,87.09
2022-12-11T11:22:29.000Z,87.09
2022-12-11T11:23:29.000Z,87.62
2022-12-11T11:23:29.000Z,87.62
2022-12-11T11:24:29.000Z,87.30
2022-12-11T11:24:29.000Z,87.30
2022-12-11T11:25:29.000Z,87.24
2022-12-11T11:25:29.000Z,87.24
2022-12-11T11:26:28.000Z,88.07
2022-12-11T11:27:28.000Z,87.55
2022-12-11T11:28:28.000Z,88.07
2022-12-11T11:29:28.000Z,88.49
2022-12-11T11:30:28.000Z,88.60
2022-12-11T11:31:28.000Z,88.49
2022-12-11T11:32:28.000Z,88.49
2022-12-11T11:33:28.000Z,88.39
2022-12-11T11:34:28.000Z,88.39
2022-12-11T11:35:28.000Z,88.29
2022-12-11T11:36:28.000Z,88.39
2022-12-11T11:37:28.000Z,88.18
2022-12-11T11:38:28.000Z,88.39
2022-12-11T11:39:28.000Z,87.97
2022-12-11T11:40:28.000Z,88.07
2022-12-11T11:41:28.000Z,88.49
2022-12-11T11:42:28.000Z,88.49
2022-12-11T11:43:28.000Z,88.49
2022-12-11T11:44:28.000Z,88.39
2022-12-11T11:45:28.000Z,88.81
2022-12-11T11:46:28.000Z,88.92
2022-12-11T11:47:28.000Z,89.34
2022-12-11T11:48:28.000Z,89.65
2022-12-11T11:49:28.000Z,89.97
2022-12-11T11:50:28.000Z,88.92
2022-12-11T11:51:28.000Z,88.39
2022-12-11T11:52:28.000Z,89.02
2022-12-11T11:53:28.000Z,89.23
2022-12-11T11:54:28.000Z,89.54
2022-12-11T11:55:28.000Z,89.86
2022-12-11T11:56:28.000Z,89.54
2022-12-11T11:57:28.000Z,89.54
2022-12-11T11:58:28.000Z,89.65
2022-12-11T11:59:28.000Z,89.75
2022-12-11T12:00:28.000Z,89.86
2022-12-11T12:01:28.000Z,90.07
2022-12-11T12:02:28.000Z,89.97
2022-12-11T12:03:28.000Z,89.65
2022-12-11T12:04:28.000Z,89.54
2022-12-11T12:05:28.000Z,89.34
2022-12-11T12:06:28.000Z,89.34
2022-12-11T12:07:28.000Z,89.44
2022-12-11T12:08:28.000Z,89.75
2022-12-11T12:09:28.000Z,89.86
2022-12-11T12:10:28.000Z,89.12
2022-12-11T12:11:28.000Z,88.92
2022-12-11T12:12:28.000Z,89.12
2022-12-11T12:13:28.000Z,89.54
2022-12-11T12:14:28.000Z,89.44
2022-12-11T12:15:28.000Z,89.34
2022-12-11T12:16:28.000Z,89.86
2022-12-11T12:17:28.000Z,90.17
2022-12-11T12:18:28.000Z,89.97
2022-12-11T12:19:28.000Z,90.07
2022-12-11T12:20:28.000Z,90.07
2022-12-11T12:21:28.000Z,90.28
2022-12-11T12:22:28.000Z,90.38
2022-12-11T12:23:28.000Z,90.17
2022-12-11T12:24:28.000Z,90.17
2022-12-11T12:25:28.000Z,90.17
2022-12-11T12:26:28.000Z,89.54
2022-12-11T12:27:28.000Z,90.17
2022-12-11T12:28:28.000Z,90.49
2022-12-11T12:29:28.000Z,91.01
2022-12-11T12:30:28.000Z,91.12
2022-12-11T12:31:28.000Z,91.22
2022-12-11T12:32:28.000Z,91.43
2022-12-11T12:33:28.000Z,91.53
2022-12-11T12:34:28.000Z,91.64
2022-12-11T12:35:28.000Z,91.85
2022-12-11T12:36:28.000Z,92.06
2022-12-11T12:37:28.000Z,92.16
2022-12-11T12:38:28.000Z,92.27
2022-12-11T12:39:28.000Z,91.96
2022-12-11T12:40:28.000Z,91.85
2022-12-11T12:41:28.000Z,92.16
2022-12-11T12:42:28.000Z,92.27
2022-12-11T12:43:27.000Z,92.38
2022-12-11T12:44:27.000Z,92.27
2022-12-11T12:45:27.000Z,92.06
2022-12-11T12:46:27.000Z,92.16
2022-12-11T12:47:27.000Z,92.38